PWSweather.com
Personal Weather Stations
Station Observations
ISARDEGN48
BittiIT 08021

BittiIT 08021

Lat: 40.4805, Lon: 9.3887

Elevation: 1804

Station Type: La Crosse WS2355

http://meteobitti.altervista.org

High Low Average
Temperature 54.5°F12.5°C 44.4°F6.9°C 49.3°F9.6°C
Dew Point 49.2°F9.6°C 41.7°F5.4°C 45.7°F7.6°C
Winds 14.5 mph 23.3 kmh Calm Calm 2.0 mph ESE3.2 kmh ESE
Wind Gusts 17.0 mph27.4 kmh -- 6.0 mph9.7 kmh
Humidity 92% 79% 88%
Pressure 29.49 in998.6 mb 29.33 in993.2 mb -
Precipitation 0.02 in0.5 mm - -
Hour Temp Dew Point Humidity Winds Wind Gusts Pressure Precip Precip Rate Daily Precip Total
12:00 AM 46.8°F8.2°C 44.3°F6.8°C 91% 0.9 mph SW1.4 kmh SW 2.9 mph4.7 kmh 29.38 in994.9 mb 0.00 in0.0 mm 0.00 in0.0 mm 0.00 in0.0 mm
12:05 AM 46.6°F8.1°C 44.2°F6.8°C 91% Calm Calm 2.5 mph4.0 kmh 29.38 in994.9 mb 0.00 in0.0 mm 0.00 in0.0 mm 0.00 in0.0 mm
12:10 AM 46.6°F8.1°C 44.2°F6.8°C 91% Calm Calm 1.8 mph2.9 kmh 29.38 in994.9 mb 0.00 in0.0 mm 0.00 in0.0 mm 0.00 in0.0 mm
12:15 AM 46.6°F8.1°C 44.2°F6.8°C 91% Calm Calm 2.2 mph3.5 kmh 29.38 in994.9 mb 0.00 in0.0 mm 0.00 in0.0 mm 0.00 in0.0 mm
12:20 AM 46.6°F8.1°C 44.2°F6.8°C 91% 2.0 mph SW3.2 kmh SW 2.7 mph4.3 kmh 29.38 in994.9 mb 0.00 in0.0 mm 0.00 in0.0 mm 0.00 in0.0 mm
12:25 AM 46.4°F8.0°C 44.0°F6.7°C 91% 1.3 mph SW2.1 kmh SW 2.7 mph4.3 kmh 29.38 in994.9 mb 0.00 in0.0 mm 0.00 in0.0 mm 0.00 in0.0 mm
12:30 AM 46.2°F7.9°C 43.8°F6.6°C 91% 1.3 mph SW2.1 kmh SW 2.2 mph3.5 kmh 29.37 in994.6 mb 0.00 in0.0 mm 0.00 in0.0 mm 0.00 in0.0 mm
12:35 AM 46.2°F7.9°C 43.8°F6.6°C 91% Calm Calm 1.8 mph2.9 kmh 29.37 in994.6 mb 0.00 in0.0 mm 0.00 in0.0 mm 0.00 in0.0 mm
12:40 AM 46.2°F7.9°C 43.8°F6.6°C 91% Calm Calm 2.2 mph3.5 kmh 29.37 in994.6 mb 0.00 in0.0 mm 0.00 in0.0 mm 0.00 in0.0 mm
12:45 AM 46.2°F7.9°C 43.8°F6.6°C 91% Calm Calm 2.2 mph3.5 kmh 29.37 in994.6 mb 0.00 in0.0 mm 0.00 in0.0 mm 0.00 in0.0 mm
12:50 AM 46.2°F7.9°C 43.8°F6.6°C 91% 1.6 mph SW2.6 kmh SW 2.2 mph3.5 kmh 29.37 in994.6 mb 0.00 in0.0 mm 0.00 in0.0 mm 0.00 in0.0 mm
12:55 AM 46.2°F7.9°C 43.8°F6.6°C 91% 2.0 mph SW3.2 kmh SW 2.5 mph4.0 kmh 29.37 in994.6 mb 0.00 in0.0 mm 0.00 in0.0 mm 0.00 in0.0 mm
01:00 AM 46.2°F7.9°C 43.8°F6.6°C 91% 0.9 mph SW1.4 kmh SW 2.5 mph4.0 kmh 29.37 in994.6 mb 0.00 in0.0 mm 0.00 in0.0 mm 0.00 in0.0 mm
01:05 AM 46.2°F7.9°C 43.8°F6.6°C 91% 0.9 mph SSW1.4 kmh SSW 2.9 mph4.7 kmh 29.37 in994.6 mb 0.00 in0.0 mm 0.00 in0.0 mm 0.00 in0.0 mm
01:10 AM 46.2°F7.9°C 43.8°F6.6°C 91% 2.2 mph SW3.5 kmh SW 2.9 mph4.7 kmh 29.37 in994.6 mb 0.00 in0.0 mm 0.00 in0.0 mm 0.00 in0.0 mm
01:15 AM 46.0°F7.8°C 43.6°F6.4°C 91% 1.6 mph SW2.6 kmh SW 3.1 mph5.0 kmh 29.37 in994.6 mb 0.00 in0.0 mm 0.00 in0.0 mm 0.00 in0.0 mm
01:20 AM 46.0°F7.8°C 43.6°F6.4°C 91% 2.0 mph SW3.2 kmh SW 3.6 mph5.8 kmh 29.37 in994.6 mb 0.00 in0.0 mm 0.00 in0.0 mm 0.00 in0.0 mm
01:25 AM 45.7°F7.6°C 43.3°F6.3°C 91% 1.1 mph SW1.8 kmh SW 3.6 mph5.8 kmh 29.37 in994.6 mb 0.00 in0.0 mm 0.00 in0.0 mm 0.00 in0.0 mm
01:30 AM 45.7°F7.6°C 43.3°F6.3°C 91% 2.9 mph SW4.7 kmh SW 3.1 mph5.0 kmh 29.37 in994.6 mb 0.00 in0.0 mm 0.00 in0.0 mm 0.00 in0.0 mm
01:35 AM 45.7°F7.6°C 43.3°F6.3°C 91% Calm Calm 3.1 mph5.0 kmh 29.37 in994.6 mb 0.00 in0.0 mm 0.00 in0.0 mm 0.00 in0.0 mm
01:40 AM 45.7°F7.6°C 43.3°F6.3°C 91% Calm Calm 2.9 mph4.7 kmh 29.37 in994.6 mb 0.00 in0.0 mm 0.00 in0.0 mm 0.00 in0.0 mm
01:45 AM 45.5°F7.5°C 43.1°F6.2°C 91% 1.8 mph SW2.9 kmh SW 2.9 mph4.7 kmh 29.37 in994.6 mb 0.00 in0.0 mm 0.00 in0.0 mm 0.00 in0.0 mm
01:50 AM 45.7°F7.6°C 43.3°F6.3°C 91% 1.1 mph SW1.8 kmh SW 2.9 mph4.7 kmh 29.37 in994.6 mb 0.00 in0.0 mm 0.00 in0.0 mm 0.00 in0.0 mm
01:55 AM 45.7°F7.6°C 43.3°F6.3°C 91% 1.3 mph SW2.1 kmh SW 2.7 mph4.3 kmh 29.36 in994.2 mb 0.00 in0.0 mm 0.00 in0.0 mm 0.00 in0.0 mm
02:00 AM 45.7°F7.6°C 43.3°F6.3°C 91% Calm Calm 2.2 mph3.5 kmh 29.36 in994.2 mb 0.00 in0.0 mm 0.00 in0.0 mm 0.00 in0.0 mm
02:05 AM 46.0°F7.8°C 43.6°F6.4°C 91% 1.3 mph SSW2.1 kmh SSW 2.0 mph3.2 kmh 29.36 in994.2 mb 0.00 in0.0 mm 0.00 in0.0 mm 0.00 in0.0 mm
02:10 AM 46.0°F7.8°C 43.6°F6.4°C 91% 2.9 mph SW4.7 kmh SW 3.8 mph6.1 kmh 29.36 in994.2 mb 0.00 in0.0 mm 0.00 in0.0 mm 0.00 in0.0 mm
02:15 AM 46.0°F7.8°C 43.6°F6.4°C 91% 1.1 mph SW1.8 kmh SW 4.7 mph7.6 kmh 29.36 in994.2 mb 0.00 in0.0 mm 0.00 in0.0 mm 0.00 in0.0 mm
02:20 AM 46.2°F7.9°C 43.8°F6.6°C 91% Calm Calm 4.7 mph7.6 kmh 29.36 in994.2 mb 0.00 in0.0 mm 0.00 in0.0 mm 0.00 in0.0 mm
02:25 AM 46.2°F7.9°C 43.8°F6.6°C 91% 2.0 mph SW3.2 kmh SW 3.1 mph5.0 kmh 29.36 in994.2 mb 0.00 in0.0 mm 0.00 in0.0 mm 0.00 in0.0 mm
02:30 AM 46.2°F7.9°C 43.8°F6.6°C 91% 2.7 mph SW4.3 kmh SW 4.3 mph6.9 kmh 29.36 in994.2 mb 0.00 in0.0 mm 0.00 in0.0 mm 0.00 in0.0 mm
02:35 AM 46.2°F7.9°C 43.8°F6.6°C 91% 1.8 mph SW2.9 kmh SW 4.3 mph6.9 kmh 29.36 in994.2 mb 0.00 in0.0 mm 0.00 in0.0 mm 0.00 in0.0 mm
02:40 AM 46.2°F7.9°C 43.8°F6.6°C 91% 2.5 mph SW4.0 kmh SW 2.9 mph4.7 kmh 29.36 in994.2 mb 0.00 in0.0 mm 0.00 in0.0 mm 0.00 in0.0 mm
02:45 AM 46.0°F7.8°C 43.6°F6.4°C 91% 2.9 mph SW4.7 kmh SW 3.1 mph5.0 kmh 29.36 in994.2 mb 0.00 in0.0 mm 0.00 in0.0 mm 0.00 in0.0 mm
02:50 AM 46.0°F7.8°C 43.6°F6.4°C 91% 3.1 mph SW5.0 kmh SW 3.1 mph5.0 kmh 29.36 in994.2 mb 0.00 in0.0 mm 0.00 in0.0 mm 0.00 in0.0 mm
02:55 AM 46.2°F7.9°C 43.8°F6.6°C 91% Calm Calm 6.3 mph10.1 kmh 29.36 in994.2 mb 0.00 in0.0 mm 0.00 in0.0 mm 0.00 in0.0 mm
03:00 AM 46.2°F7.9°C 43.8°F6.6°C 91% 3.1 mph SW5.0 kmh SW 6.3 mph10.1 kmh 29.36 in994.2 mb 0.00 in0.0 mm 0.00 in0.0 mm 0.00 in0.0 mm
03:05 AM 46.6°F8.1°C 43.9°F6.6°C 90% 8.9 mph WSW14.3 kmh WSW 8.9 mph14.3 kmh 29.36 in994.2 mb 0.00 in0.0 mm 0.00 in0.0 mm 0.00 in0.0 mm
03:10 AM 46.9°F8.3°C 44.2°F6.8°C 90% 3.4 mph WSW5.5 kmh WSW 8.9 mph14.3 kmh 29.36 in994.2 mb 0.00 in0.0 mm 0.00 in0.0 mm 0.00 in0.0 mm
03:15 AM 47.1°F8.4°C 44.1°F6.7°C 89% Calm Calm 8.9 mph14.3 kmh 29.36 in994.2 mb 0.00 in0.0 mm 0.00 in0.0 mm 0.00 in0.0 mm
03:20 AM 47.3°F8.5°C 44.3°F6.8°C 89% Calm Calm 5.1 mph8.2 kmh 29.36 in994.2 mb 0.00 in0.0 mm 0.00 in0.0 mm 0.00 in0.0 mm
03:25 AM 47.3°F8.5°C 44.3°F6.8°C 89% Calm Calm 2.9 mph4.7 kmh 29.36 in994.2 mb 0.00 in0.0 mm 0.00 in0.0 mm 0.00 in0.0 mm
03:30 AM 47.3°F8.5°C 44.3°F6.8°C 89% Calm Calm 2.7 mph4.3 kmh 29.36 in994.2 mb 0.00 in0.0 mm 0.00 in0.0 mm 0.00 in0.0 mm
03:35 AM 47.1°F8.4°C 43.8°F6.6°C 88% Calm Calm 2.7 mph4.3 kmh 29.36 in994.2 mb 0.00 in0.0 mm 0.00 in0.0 mm 0.00 in0.0 mm
03:40 AM 46.9°F8.3°C 43.6°F6.4°C 88% 0.7 mph SSW1.1 kmh SSW 2.7 mph4.3 kmh 29.36 in994.2 mb 0.00 in0.0 mm 0.00 in0.0 mm 0.00 in0.0 mm
03:45 AM 46.6°F8.1°C 43.6°F6.4°C 89% 0.7 mph S1.1 kmh S 2.0 mph3.2 kmh 29.36 in994.2 mb 0.00 in0.0 mm 0.00 in0.0 mm 0.00 in0.0 mm
03:50 AM 46.4°F8.0°C 43.1°F6.2°C 88% Calm Calm 2.0 mph3.2 kmh 29.35 in993.9 mb 0.00 in0.0 mm 0.00 in0.0 mm 0.00 in0.0 mm
03:55 AM 46.2°F7.9°C 42.9°F6.1°C 88% Calm Calm 1.6 mph2.6 kmh 29.35 in993.9 mb 0.00 in0.0 mm 0.00 in0.0 mm 0.00 in0.0 mm
04:00 AM 46.2°F7.9°C 43.2°F6.2°C 89% Calm Calm 2.0 mph3.2 kmh 29.35 in993.9 mb 0.00 in0.0 mm 0.00 in0.0 mm 0.00 in0.0 mm
04:05 AM 46.2°F7.9°C 43.2°F6.2°C 89% 1.8 mph SW2.9 kmh SW 2.9 mph4.7 kmh 29.35 in993.9 mb 0.00 in0.0 mm 0.00 in0.0 mm 0.00 in0.0 mm
04:10 AM 46.2°F7.9°C 43.5°F6.4°C 90% 1.6 mph SW2.6 kmh SW 2.9 mph4.7 kmh 29.35 in993.9 mb 0.00 in0.0 mm 0.00 in0.0 mm 0.00 in0.0 mm
04:15 AM 46.2°F7.9°C 43.5°F6.4°C 90% 2.2 mph SSW3.5 kmh SSW 2.9 mph4.7 kmh 29.35 in993.9 mb 0.00 in0.0 mm 0.00 in0.0 mm 0.00 in0.0 mm
04:20 AM 46.2°F7.9°C 43.5°F6.4°C 90% Calm Calm 3.1 mph5.0 kmh 29.35 in993.9 mb 0.00 in0.0 mm 0.00 in0.0 mm 0.00 in0.0 mm
04:25 AM 46.0°F7.8°C 43.3°F6.3°C 90% 1.3 mph SW2.1 kmh SW 3.1 mph5.0 kmh 29.35 in993.9 mb 0.00 in0.0 mm 0.00 in0.0 mm 0.00 in0.0 mm
04:30 AM 46.0°F7.8°C 43.3°F6.3°C 90% Calm Calm 2.7 mph4.3 kmh 29.35 in993.9 mb 0.00 in0.0 mm 0.00 in0.0 mm 0.00 in0.0 mm
04:35 AM 45.7°F7.6°C 43.0°F6.1°C 90% Calm Calm 3.6 mph5.8 kmh 29.35 in993.9 mb 0.00 in0.0 mm 0.00 in0.0 mm 0.00 in0.0 mm
04:40 AM 46.0°F7.8°C 43.6°F6.4°C 91% 3.6 mph WSW5.8 kmh WSW 4.9 mph7.9 kmh 29.35 in993.9 mb 0.00 in0.0 mm 0.00 in0.0 mm 0.00 in0.0 mm
04:45 AM 46.4°F8.0°C 44.0°F6.7°C 91% 1.1 mph WNW1.8 kmh WNW 5.8 mph9.3 kmh 29.34 in993.6 mb 0.00 in0.0 mm 0.00 in0.0 mm 0.00 in0.0 mm
04:50 AM 46.6°F8.1°C 44.2°F6.8°C 91% Calm Calm 5.8 mph9.3 kmh 29.35 in993.9 mb 0.00 in0.0 mm 0.00 in0.0 mm 0.00 in0.0 mm
04:55 AM 46.6°F8.1°C 44.2°F6.8°C 91% Calm Calm 3.1 mph5.0 kmh 29.34 in993.6 mb 0.00 in0.0 mm 0.00 in0.0 mm 0.00 in0.0 mm
05:00 AM 46.2°F7.9°C 43.8°F6.6°C 91% Calm Calm 3.1 mph5.0 kmh 29.35 in993.9 mb 0.00 in0.0 mm 0.00 in0.0 mm 0.00 in0.0 mm
05:05 AM 46.0°F7.8°C 43.3°F6.3°C 90% 2.0 mph S3.2 kmh S 2.7 mph4.3 kmh 29.35 in993.9 mb 0.00 in0.0 mm 0.00 in0.0 mm 0.00 in0.0 mm
05:10 AM 45.3°F7.4°C 42.6°F5.9°C 90% 1.6 mph SW2.6 kmh SW 2.5 mph4.0 kmh 29.34 in993.6 mb 0.00 in0.0 mm 0.00 in0.0 mm 0.00 in0.0 mm
05:15 AM 45.1°F7.3°C 42.4°F5.8°C 90% 2.7 mph SW4.3 kmh SW 3.1 mph5.0 kmh 29.34 in993.6 mb 0.00 in0.0 mm 0.00 in0.0 mm 0.00 in0.0 mm
05:20 AM 45.0°F7.2°C 42.3°F5.7°C 90% 2.7 mph SSW4.3 kmh SSW 3.8 mph6.1 kmh 29.34 in993.6 mb 0.00 in0.0 mm 0.00 in0.0 mm 0.00 in0.0 mm
05:25 AM 44.8°F7.1°C 42.1°F5.6°C 90% 3.8 mph SW6.1 kmh SW 4.3 mph6.9 kmh 29.34 in993.6 mb 0.00 in0.0 mm 0.00 in0.0 mm 0.00 in0.0 mm
05:30 AM 44.6°F7.0°C 41.9°F5.5°C 90% 2.7 mph SW4.3 kmh SW 4.3 mph6.9 kmh 29.34 in993.6 mb 0.00 in0.0 mm 0.00 in0.0 mm 0.00 in0.0 mm
05:35 AM 44.4°F6.9°C 41.7°F5.4°C 90% Calm Calm 4.5 mph7.2 kmh 29.34 in993.6 mb 0.00 in0.0 mm 0.00 in0.0 mm 0.00 in0.0 mm
05:40 AM 44.4°F6.9°C 42.0°F5.6°C 91% 1.8 mph SW2.9 kmh SW 4.5 mph7.2 kmh 29.34 in993.6 mb 0.00 in0.0 mm 0.00 in0.0 mm 0.00 in0.0 mm
05:45 AM 44.8°F7.1°C 42.3°F5.7°C 91% 4.9 mph SW7.9 kmh SW 4.9 mph7.9 kmh 29.34 in993.6 mb 0.00 in0.0 mm 0.00 in0.0 mm 0.00 in0.0 mm
05:50 AM 45.3°F7.4°C 42.9°F6.1°C 91% 2.2 mph SW3.5 kmh SW 5.1 mph8.2 kmh 29.34 in993.6 mb 0.00 in0.0 mm 0.00 in0.0 mm 0.00 in0.0 mm
05:55 AM 45.1°F7.3°C 42.7°F5.9°C 91% 2.7 mph SW4.3 kmh SW 5.1 mph8.2 kmh 29.34 in993.6 mb 0.00 in0.0 mm 0.00 in0.0 mm 0.00 in0.0 mm
06:00 AM 45.1°F7.3°C 42.7°F5.9°C 91% 1.8 mph SW2.9 kmh SW 3.4 mph5.5 kmh 29.34 in993.6 mb 0.00 in0.0 mm 0.00 in0.0 mm 0.00 in0.0 mm
06:05 AM 45.1°F7.3°C 42.7°F5.9°C 91% 2.7 mph SW4.3 kmh SW 3.4 mph5.5 kmh 29.34 in993.6 mb 0.00 in0.0 mm 0.00 in0.0 mm 0.00 in0.0 mm
06:10 AM 45.1°F7.3°C 42.7°F5.9°C 91% 2.2 mph SW3.5 kmh SW 3.4 mph5.5 kmh 29.34 in993.6 mb 0.00 in0.0 mm 0.00 in0.0 mm 0.00 in0.0 mm
06:15 AM 45.0°F7.2°C 42.5°F5.8°C 91% 1.8 mph SW2.9 kmh SW 3.1 mph5.0 kmh 29.34 in993.6 mb 0.00 in0.0 mm 0.00 in0.0 mm 0.00 in0.0 mm
06:20 AM 44.8°F7.1°C 42.3°F5.7°C 91% 1.6 mph SW2.6 kmh SW 2.9 mph4.7 kmh 29.34 in993.6 mb 0.00 in0.0 mm 0.00 in0.0 mm 0.00 in0.0 mm
06:25 AM 44.8°F7.1°C 42.3°F5.7°C 91% 2.5 mph SW4.0 kmh SW 3.4 mph5.5 kmh 29.34 in993.6 mb 0.00 in0.0 mm 0.00 in0.0 mm 0.00 in0.0 mm
06:30 AM 44.8°F7.1°C 42.3°F5.7°C 91% 1.8 mph SW2.9 kmh SW 3.4 mph5.5 kmh 29.34 in993.6 mb 0.00 in0.0 mm 0.00 in0.0 mm 0.00 in0.0 mm
06:35 AM 45.0°F7.2°C 42.5°F5.8°C 91% Calm Calm 3.1 mph5.0 kmh 29.34 in993.6 mb 0.00 in0.0 mm 0.00 in0.0 mm 0.00 in0.0 mm
06:40 AM 45.0°F7.2°C 42.5°F5.8°C 91% Calm Calm 1.8 mph2.9 kmh 29.34 in993.6 mb 0.00 in0.0 mm 0.00 in0.0 mm 0.00 in0.0 mm
06:45 AM 45.1°F7.3°C 42.7°F5.9°C 91% Calm Calm 0.9 mph1.4 kmh 29.34 in993.6 mb 0.00 in0.0 mm 0.00 in0.0 mm 0.00 in0.0 mm
06:50 AM 45.1°F7.3°C 42.7°F5.9°C 91% Calm Calm 1.8 mph2.9 kmh 29.34 in993.6 mb 0.00 in0.0 mm 0.00 in0.0 mm 0.00 in0.0 mm
06:55 AM 45.3°F7.4°C 42.9°F6.1°C 91% Calm Calm 1.8 mph2.9 kmh 29.33 in993.2 mb 0.00 in0.0 mm 0.00 in0.0 mm 0.00 in0.0 mm
07:00 AM 45.5°F7.5°C 43.1°F6.2°C 91% Calm Calm -- 29.34 in993.6 mb 0.00 in0.0 mm 0.00 in0.0 mm 0.00 in0.0 mm
07:05 AM 45.5°F7.5°C 43.1°F6.2°C 91% Calm Calm 2.0 mph3.2 kmh 29.34 in993.6 mb 0.00 in0.0 mm 0.00 in0.0 mm 0.00 in0.0 mm
07:10 AM 45.5°F7.5°C 43.1°F6.2°C 91% Calm Calm 2.0 mph3.2 kmh 29.36 in994.2 mb 0.00 in0.0 mm 0.00 in0.0 mm 0.00 in0.0 mm
07:15 AM 45.7°F7.6°C 43.3°F6.3°C 91% Calm Calm 1.6 mph2.6 kmh 29.36 in994.2 mb 0.00 in0.0 mm 0.00 in0.0 mm 0.00 in0.0 mm
07:20 AM 46.0°F7.8°C 43.6°F6.4°C 91% 3.8 mph SW6.1 kmh SW 3.8 mph6.1 kmh 29.36 in994.2 mb 0.00 in0.0 mm 0.00 in0.0 mm 0.00 in0.0 mm
07:25 AM 46.2°F7.9°C 44.1°F6.7°C 92% 3.6 mph SW5.8 kmh SW 3.8 mph6.1 kmh 29.36 in994.2 mb 0.00 in0.0 mm 0.00 in0.0 mm 0.00 in0.0 mm
07:30 AM 46.6°F8.1°C 44.4°F6.9°C 92% 2.5 mph SSW4.0 kmh SSW 4.7 mph7.6 kmh 29.36 in994.2 mb 0.00 in0.0 mm 0.00 in0.0 mm 0.00 in0.0 mm
07:35 AM 46.9°F8.3°C 44.8°F7.1°C 92% 1.6 mph SSW2.6 kmh SSW 4.9 mph7.9 kmh 29.37 in994.6 mb 0.00 in0.0 mm 0.00 in0.0 mm 0.00 in0.0 mm
07:40 AM 47.1°F8.4°C 45.0°F7.2°C 92% 3.8 mph SSW6.1 kmh SSW 6.7 mph10.8 kmh 29.37 in994.6 mb 0.00 in0.0 mm 0.00 in0.0 mm 0.00 in0.0 mm
07:45 AM 47.3°F8.5°C 44.9°F7.2°C 91% Calm Calm 6.7 mph10.8 kmh 29.38 in994.9 mb 0.00 in0.0 mm 0.00 in0.0 mm 0.00 in0.0 mm
07:50 AM 47.5°F8.6°C 45.0°F7.2°C 91% Calm Calm 4.5 mph7.2 kmh 29.38 in994.9 mb 0.00 in0.0 mm 0.00 in0.0 mm 0.00 in0.0 mm
07:55 AM 47.7°F8.7°C 45.2°F7.3°C 91% 1.8 mph S2.9 kmh S 2.2 mph3.5 kmh 29.37 in994.6 mb 0.00 in0.0 mm 0.00 in0.0 mm 0.00 in0.0 mm
08:00 AM 47.7°F8.7°C 45.2°F7.3°C 91% 3.1 mph SSW5.0 kmh SSW 5.1 mph8.2 kmh 29.37 in994.6 mb 0.00 in0.0 mm 0.00 in0.0 mm 0.00 in0.0 mm
08:05 AM 47.7°F8.7°C 45.2°F7.3°C 91% 4.7 mph SSW7.6 kmh SSW 8.3 mph13.4 kmh 29.37 in994.6 mb 0.00 in0.0 mm 0.00 in0.0 mm 0.00 in0.0 mm
08:10 AM 47.7°F8.7°C 45.2°F7.3°C 91% 4.5 mph SSW7.2 kmh SSW 8.3 mph13.4 kmh 29.38 in994.9 mb 0.00 in0.0 mm 0.00 in0.0 mm 0.00 in0.0 mm
08:15 AM 48.0°F8.9°C 45.6°F7.6°C 91% Calm Calm 8.3 mph13.4 kmh 29.38 in994.9 mb 0.00 in0.0 mm 0.00 in0.0 mm 0.00 in0.0 mm
08:20 AM 48.0°F8.9°C 45.6°F7.6°C 91% 0.9 mph SSW1.4 kmh SSW 6.0 mph9.7 kmh 29.38 in994.9 mb 0.00 in0.0 mm 0.00 in0.0 mm 0.00 in0.0 mm
08:25 AM 47.8°F8.8°C 45.4°F7.4°C 91% 1.8 mph NE2.9 kmh NE 3.4 mph5.5 kmh 29.38 in994.9 mb 0.00 in0.0 mm 0.00 in0.0 mm 0.00 in0.0 mm
08:30 AM 47.8°F8.8°C 45.4°F7.4°C 91% 2.0 mph NE3.2 kmh NE 3.4 mph5.5 kmh 29.38 in994.9 mb 0.00 in0.0 mm 0.00 in0.0 mm 0.00 in0.0 mm
08:35 AM 48.0°F8.9°C 45.6°F7.6°C 91% 2.9 mph ENE4.7 kmh ENE 4.5 mph7.2 kmh 29.38 in994.9 mb 0.00 in0.0 mm 0.00 in0.0 mm 0.00 in0.0 mm
08:40 AM 48.0°F8.9°C 45.6°F7.6°C 91% Calm Calm 4.5 mph7.2 kmh 29.39 in995.3 mb 0.00 in0.0 mm 0.00 in0.0 mm 0.00 in0.0 mm
08:45 AM 48.2°F9.0°C 45.8°F7.7°C 91% Calm Calm 2.9 mph4.7 kmh 29.39 in995.3 mb 0.00 in0.0 mm 0.00 in0.0 mm 0.00 in0.0 mm
08:50 AM 48.2°F9.0°C 45.8°F7.7°C 91% Calm Calm 3.1 mph5.0 kmh 29.39 in995.3 mb 0.00 in0.0 mm 0.00 in0.0 mm 0.00 in0.0 mm
08:55 AM 48.4°F9.1°C 45.9°F7.7°C 91% 7.4 mph S11.9 kmh S 7.4 mph11.9 kmh 29.39 in995.3 mb 0.00 in0.0 mm 0.00 in0.0 mm 0.00 in0.0 mm
09:00 AM 48.6°F9.2°C 46.1°F7.8°C 91% 2.9 mph SSW4.7 kmh SSW 7.4 mph11.9 kmh 29.39 in995.3 mb 0.00 in0.0 mm 0.00 in0.0 mm 0.00 in0.0 mm
09:05 AM 48.6°F9.2°C 46.1°F7.8°C 91% 14.5 mph SSW23.3 kmh SSW 14.5 mph23.3 kmh 29.39 in995.3 mb 0.00 in0.0 mm 0.00 in0.0 mm 0.00 in0.0 mm
09:10 AM 48.7°F9.3°C 46.0°F7.8°C 90% 13.4 mph SSW21.6 kmh SSW 14.5 mph23.3 kmh 29.39 in995.3 mb 0.00 in0.0 mm 0.00 in0.0 mm 0.00 in0.0 mm
09:15 AM 48.9°F9.4°C 46.1°F7.8°C 90% 8.9 mph S14.3 kmh S 15.0 mph24.1 kmh 29.39 in995.3 mb 0.00 in0.0 mm 0.00 in0.0 mm 0.00 in0.0 mm
09:20 AM 49.3°F9.6°C 46.1°F7.8°C 89% 11.6 mph S18.7 kmh S 15.0 mph24.1 kmh 29.39 in995.3 mb 0.00 in0.0 mm 0.00 in0.0 mm 0.00 in0.0 mm
09:25 AM 49.6°F9.8°C 46.5°F8.1°C 89% 11.2 mph SSW18.0 kmh SSW 17.0 mph27.4 kmh 29.40 in995.6 mb 0.00 in0.0 mm 0.00 in0.0 mm 0.00 in0.0 mm
09:30 AM 49.8°F9.9°C 46.6°F8.1°C 89% 7.4 mph SSW11.9 kmh SSW 17.0 mph27.4 kmh 29.40 in995.6 mb 0.00 in0.0 mm 0.00 in0.0 mm 0.00 in0.0 mm
09:35 AM 49.8°F9.9°C 46.6°F8.1°C 89% 5.6 mph SSW9.0 kmh SSW 15.2 mph24.5 kmh 29.40 in995.6 mb 0.00 in0.0 mm 0.00 in0.0 mm 0.00 in0.0 mm
09:40 AM 49.8°F9.9°C 46.6°F8.1°C 89% Calm Calm 12.3 mph19.8 kmh 29.40 in995.6 mb 0.00 in0.0 mm 0.00 in0.0 mm 0.00 in0.0 mm
09:45 AM 50.2°F10.1°C 47.0°F8.3°C 89% 2.0 mph SSW3.2 kmh SSW 8.3 mph13.4 kmh 29.40 in995.6 mb 0.00 in0.0 mm 0.00 in0.0 mm 0.00 in0.0 mm
09:50 AM 50.2°F10.1°C 46.7°F8.2°C 88% 7.4 mph S11.9 kmh S 10.3 mph16.6 kmh 29.40 in995.6 mb 0.00 in0.0 mm 0.00 in0.0 mm 0.00 in0.0 mm
09:55 AM 50.2°F10.1°C 46.4°F8.0°C 87% 6.0 mph S9.7 kmh S 10.3 mph16.6 kmh 29.40 in995.6 mb 0.00 in0.0 mm 0.00 in0.0 mm 0.00 in0.0 mm
10:00 AM 50.5°F10.3°C 46.7°F8.2°C 87% 1.6 mph S2.6 kmh S 11.9 mph19.2 kmh 29.41 in995.9 mb 0.00 in0.0 mm 0.00 in0.0 mm 0.00 in0.0 mm
10:05 AM 50.7°F10.4°C 46.6°F8.1°C 86% 1.8 mph S2.9 kmh S 11.9 mph19.2 kmh 29.41 in995.9 mb 0.00 in0.0 mm 0.00 in0.0 mm 0.00 in0.0 mm
10:10 AM 50.5°F10.3°C 46.4°F8.0°C 86% Calm Calm 9.2 mph14.8 kmh 29.41 in995.9 mb 0.00 in0.0 mm 0.00 in0.0 mm 0.00 in0.0 mm
10:15 AM 50.7°F10.4°C 46.6°F8.1°C 86% 2.7 mph S4.3 kmh S 8.5 mph13.7 kmh 29.41 in995.9 mb 0.00 in0.0 mm 0.00 in0.0 mm 0.00 in0.0 mm
10:20 AM 50.9°F10.5°C 46.8°F8.2°C 86% 1.1 mph S1.8 kmh S 8.3 mph13.4 kmh 29.41 in995.9 mb 0.00 in0.0 mm 0.00 in0.0 mm 0.00 in0.0 mm
10:25 AM 51.4°F10.8°C 47.3°F8.5°C 86% 2.2 mph SE3.5 kmh SE 2.9 mph4.7 kmh 29.41 in995.9 mb 0.00 in0.0 mm 0.00 in0.0 mm 0.00 in0.0 mm
10:30 AM 51.8°F11.0°C 47.7°F8.7°C 86% 3.1 mph ENE5.0 kmh ENE 3.1 mph5.0 kmh 29.41 in995.9 mb 0.00 in0.0 mm 0.00 in0.0 mm 0.00 in0.0 mm
10:35 AM 52.3°F11.3°C 47.9°F8.8°C 85% 2.7 mph ENE4.3 kmh ENE 3.8 mph6.1 kmh 29.41 in995.9 mb 0.00 in0.0 mm 0.00 in0.0 mm 0.00 in0.0 mm
10:40 AM 52.5°F11.4°C 47.8°F8.8°C 84% 6.3 mph SE10.1 kmh SE 8.5 mph13.7 kmh 29.41 in995.9 mb 0.00 in0.0 mm 0.00 in0.0 mm 0.00 in0.0 mm
10:45 AM 52.5°F11.4°C 47.5°F8.6°C 83% 1.8 mph S2.9 kmh S 8.5 mph13.7 kmh 29.41 in995.9 mb 0.00 in0.0 mm 0.00 in0.0 mm 0.00 in0.0 mm
10:50 AM 52.5°F11.4°C 47.5°F8.6°C 83% 3.1 mph NE5.0 kmh NE 6.3 mph10.1 kmh 29.41 in995.9 mb 0.00 in0.0 mm 0.00 in0.0 mm 0.00 in0.0 mm
10:55 AM 52.7°F11.5°C 47.7°F8.7°C 83% 1.6 mph ENE2.6 kmh ENE 3.8 mph6.1 kmh 29.41 in995.9 mb 0.00 in0.0 mm 0.00 in0.0 mm 0.00 in0.0 mm
11:00 AM 53.2°F11.8°C 48.2°F9.0°C 83% 1.6 mph SSE2.6 kmh SSE 5.1 mph8.2 kmh 29.41 in995.9 mb 0.00 in0.0 mm 0.00 in0.0 mm 0.00 in0.0 mm
11:05 AM 53.4°F11.9°C 47.8°F8.8°C 81% 4.9 mph S7.9 kmh S 11.6 mph18.7 kmh 29.41 in995.9 mb 0.00 in0.0 mm 0.00 in0.0 mm 0.00 in0.0 mm
11:10 AM 53.8°F12.1°C 47.8°F8.8°C 80% 10.1 mph SSW16.3 kmh SSW 11.6 mph18.7 kmh 29.41 in995.9 mb 0.00 in0.0 mm 0.00 in0.0 mm 0.00 in0.0 mm
11:15 AM 53.4°F11.9°C 47.1°F8.4°C 79% 14.1 mph SSW22.7 kmh SSW 14.1 mph22.7 kmh 29.41 in995.9 mb 0.00 in0.0 mm 0.00 in0.0 mm 0.00 in0.0 mm
11:20 AM 53.4°F11.9°C 47.1°F8.4°C 79% 5.1 mph SSW8.2 kmh SSW 14.1 mph22.7 kmh 29.41 in995.9 mb 0.00 in0.0 mm 0.00 in0.0 mm 0.00 in0.0 mm
11:25 AM 52.9°F11.6°C 46.9°F8.3°C 80% 8.9 mph SSW14.3 kmh SSW 13.6 mph21.9 kmh 29.41 in995.9 mb 0.00 in0.0 mm 0.00 in0.0 mm 0.00 in0.0 mm
11:30 AM 52.9°F11.6°C 46.9°F8.3°C 80% 7.2 mph SSW11.6 kmh SSW 11.2 mph18.0 kmh 29.41 in995.9 mb 0.00 in0.0 mm 0.00 in0.0 mm 0.00 in0.0 mm
11:35 AM 52.5°F11.4°C 46.6°F8.1°C 80% 4.5 mph SSW7.2 kmh SSW 12.3 mph19.8 kmh 29.41 in995.9 mb 0.00 in0.0 mm 0.00 in0.0 mm 0.00 in0.0 mm
11:40 AM 52.5°F11.4°C 46.6°F8.1°C 80% 8.3 mph SSW13.4 kmh SSW 13.0 mph20.9 kmh 29.41 in995.9 mb 0.00 in0.0 mm 0.00 in0.0 mm 0.00 in0.0 mm
11:45 AM 52.5°F11.4°C 46.9°F8.3°C 81% 7.4 mph SSW11.9 kmh SSW 13.2 mph21.2 kmh 29.41 in995.9 mb 0.00 in0.0 mm 0.00 in0.0 mm 0.00 in0.0 mm
11:50 AM 52.7°F11.5°C 47.4°F8.6°C 82% 7.4 mph SSW11.9 kmh SSW 13.2 mph21.2 kmh 29.41 in995.9 mb 0.00 in0.0 mm 0.00 in0.0 mm 0.00 in0.0 mm
11:55 AM 52.7°F11.5°C 47.4°F8.6°C 82% 7.8 mph SSW12.6 kmh SSW 10.3 mph16.6 kmh 29.41 in995.9 mb 0.00 in0.0 mm 0.00 in0.0 mm 0.00 in0.0 mm
12:00 PM 52.7°F11.5°C 47.4°F8.6°C 82% 5.1 mph SSW8.2 kmh SSW 10.3 mph16.6 kmh 29.41 in995.9 mb 0.00 in0.0 mm 0.00 in0.0 mm 0.00 in0.0 mm
12:05 PM 52.5°F11.4°C 46.9°F8.3°C 81% 5.4 mph SSW8.7 kmh SSW 10.3 mph16.6 kmh 29.40 in995.6 mb 0.00 in0.0 mm 0.00 in0.0 mm 0.00 in0.0 mm
12:10 PM 52.5°F11.4°C 46.6°F8.1°C 80% 1.1 mph SSW1.8 kmh SSW 12.3 mph19.8 kmh 29.40 in995.6 mb 0.00 in0.0 mm 0.00 in0.0 mm 0.00 in0.0 mm
12:15 PM 53.2°F11.8°C 47.6°F8.7°C 81% 1.1 mph SSW1.8 kmh SSW 12.3 mph19.8 kmh 29.40 in995.6 mb 0.00 in0.0 mm 0.00 in0.0 mm 0.00 in0.0 mm
12:20 PM 53.4°F11.9°C 47.5°F8.6°C 80% 3.4 mph S5.5 kmh S 5.8 mph9.3 kmh 29.40 in995.6 mb 0.00 in0.0 mm 0.00 in0.0 mm 0.00 in0.0 mm
12:25 PM 53.4°F11.9°C 47.5°F8.6°C 80% Calm Calm 5.6 mph9.0 kmh 29.40 in995.6 mb 0.00 in0.0 mm 0.00 in0.0 mm 0.00 in0.0 mm
12:30 PM 53.4°F11.9°C 47.1°F8.4°C 79% 2.2 mph S3.5 kmh S 5.6 mph9.0 kmh 29.40 in995.6 mb 0.00 in0.0 mm 0.00 in0.0 mm 0.00 in0.0 mm
12:35 PM 53.2°F11.8°C 46.9°F8.3°C 79% 2.9 mph S4.7 kmh S 9.6 mph15.4 kmh 29.39 in995.3 mb 0.00 in0.0 mm 0.00 in0.0 mm 0.00 in0.0 mm
12:40 PM 53.2°F11.8°C 46.9°F8.3°C 79% 4.0 mph SSW6.4 kmh SSW 9.6 mph15.4 kmh 29.40 in995.6 mb 0.00 in0.0 mm 0.00 in0.0 mm 0.00 in0.0 mm
12:45 PM 52.9°F11.6°C 46.6°F8.1°C 79% 4.7 mph SSW7.6 kmh SSW 9.6 mph15.4 kmh 29.40 in995.6 mb 0.00 in0.0 mm 0.00 in0.0 mm 0.00 in0.0 mm
12:50 PM 53.2°F11.8°C 46.9°F8.3°C 79% 4.3 mph SSW6.9 kmh SSW 9.6 mph15.4 kmh 29.40 in995.6 mb 0.00 in0.0 mm 0.00 in0.0 mm 0.00 in0.0 mm
12:55 PM 53.2°F11.8°C 46.9°F8.3°C 79% 6.0 mph SSW9.7 kmh SSW 7.4 mph11.9 kmh 29.39 in995.3 mb 0.00 in0.0 mm 0.00 in0.0 mm 0.00 in0.0 mm
01:00 PM 53.2°F11.8°C 46.9°F8.3°C 79% 3.8 mph SW6.1 kmh SW 7.6 mph12.2 kmh 29.39 in995.3 mb 0.00 in0.0 mm 0.00 in0.0 mm 0.00 in0.0 mm
01:05 PM 52.9°F11.6°C 46.9°F8.3°C 80% 8.3 mph SSW13.4 kmh SSW 9.6 mph15.4 kmh 29.39 in995.3 mb 0.00 in0.0 mm 0.00 in0.0 mm 0.00 in0.0 mm
01:10 PM 52.9°F11.6°C 47.2°F8.4°C 81% 2.7 mph SSW4.3 kmh SSW 9.6 mph15.4 kmh 29.39 in995.3 mb 0.00 in0.0 mm 0.00 in0.0 mm 0.00 in0.0 mm
01:15 PM 53.2°F11.8°C 47.6°F8.7°C 81% 6.9 mph SSW11.1 kmh SSW 9.6 mph15.4 kmh 29.39 in995.3 mb 0.00 in0.0 mm 0.00 in0.0 mm 0.00 in0.0 mm
01:20 PM 53.4°F11.9°C 47.5°F8.6°C 80% 4.7 mph S7.6 kmh S 10.3 mph16.6 kmh 29.39 in995.3 mb 0.00 in0.0 mm 0.00 in0.0 mm 0.00 in0.0 mm
01:25 PM 53.8°F12.1°C 47.8°F8.8°C 80% 4.9 mph S7.9 kmh S 10.3 mph16.6 kmh 29.38 in994.9 mb 0.00 in0.0 mm 0.00 in0.0 mm 0.00 in0.0 mm
01:30 PM 53.8°F12.1°C 47.8°F8.8°C 80% 2.5 mph S4.0 kmh S 11.2 mph18.0 kmh 29.39 in995.3 mb 0.00 in0.0 mm 0.00 in0.0 mm 0.00 in0.0 mm
01:35 PM 53.4°F11.9°C 47.1°F8.4°C 79% 6.9 mph SSW11.1 kmh SSW 11.2 mph18.0 kmh 29.39 in995.3 mb 0.00 in0.0 mm 0.00 in0.0 mm 0.00 in0.0 mm
01:40 PM 53.4°F11.9°C 47.5°F8.6°C 80% 4.5 mph S7.2 kmh S 9.4 mph15.1 kmh 29.38 in994.9 mb 0.00 in0.0 mm 0.00 in0.0 mm 0.00 in0.0 mm
01:45 PM 53.2°F11.8°C 47.3°F8.5°C 80% 5.6 mph SSW9.0 kmh SSW 9.6 mph15.4 kmh 29.38 in994.9 mb 0.00 in0.0 mm 0.00 in0.0 mm 0.00 in0.0 mm
01:50 PM 53.2°F11.8°C 47.9°F8.8°C 82% 2.0 mph SSW3.2 kmh SSW 12.3 mph19.8 kmh 29.38 in994.9 mb 0.00 in0.0 mm 0.00 in0.0 mm 0.00 in0.0 mm
01:55 PM 52.9°F11.6°C 47.9°F8.8°C 83% 4.0 mph SSW6.4 kmh SSW 12.3 mph19.8 kmh 29.38 in994.9 mb 0.00 in0.0 mm 0.00 in0.0 mm 0.00 in0.0 mm
02:00 PM 52.9°F11.6°C 47.9°F8.8°C 83% 2.5 mph SSW4.0 kmh SSW 8.3 mph13.4 kmh 29.38 in994.9 mb 0.00 in0.0 mm 0.00 in0.0 mm 0.00 in0.0 mm
02:05 PM 53.4°F11.9°C 48.7°F9.3°C 84% 1.6 mph SSW2.6 kmh SSW 8.3 mph13.4 kmh 29.38 in994.9 mb 0.00 in0.0 mm 0.00 in0.0 mm 0.00 in0.0 mm
02:10 PM 53.8°F12.1°C 49.0°F9.4°C 84% 0.9 mph S1.4 kmh S 4.5 mph7.2 kmh 29.38 in994.9 mb 0.00 in0.0 mm 0.00 in0.0 mm 0.00 in0.0 mm
02:15 PM 54.3°F12.4°C 49.2°F9.6°C 83% 3.1 mph S5.0 kmh S 3.4 mph5.5 kmh 29.38 in994.9 mb 0.00 in0.0 mm 0.00 in0.0 mm 0.00 in0.0 mm
02:20 PM 54.3°F12.4°C 48.6°F9.2°C 81% Calm Calm 8.9 mph14.3 kmh 29.38 in994.9 mb 0.00 in0.0 mm 0.00 in0.0 mm 0.00 in0.0 mm
02:25 PM 54.5°F12.5°C 48.5°F9.2°C 80% 7.2 mph S11.6 kmh S 8.9 mph14.3 kmh 29.38 in994.9 mb 0.00 in0.0 mm 0.00 in0.0 mm 0.00 in0.0 mm
02:30 PM 54.3°F12.4°C 48.3°F9.1°C 80% 1.8 mph SSW2.9 kmh SSW 8.1 mph13.0 kmh 29.38 in994.9 mb 0.00 in0.0 mm 0.00 in0.0 mm 0.00 in0.0 mm
02:35 PM 54.3°F12.4°C 48.3°F9.1°C 80% 2.7 mph SSW4.3 kmh SSW 6.3 mph10.1 kmh 29.38 in994.9 mb 0.00 in0.0 mm 0.00 in0.0 mm 0.00 in0.0 mm
02:40 PM 54.3°F12.4°C 48.3°F9.1°C 80% 3.1 mph SSW5.0 kmh SSW 6.7 mph10.8 kmh 29.38 in994.9 mb 0.00 in0.0 mm 0.00 in0.0 mm 0.00 in0.0 mm
02:45 PM 54.0°F12.2°C 48.0°F8.9°C 80% 2.0 mph SSW3.2 kmh SSW 6.7 mph10.8 kmh 29.38 in994.9 mb 0.00 in0.0 mm 0.00 in0.0 mm 0.00 in0.0 mm
02:50 PM 53.8°F12.1°C 48.1°F8.9°C 81% 1.6 mph SSW2.6 kmh SSW 6.7 mph10.8 kmh 29.38 in994.9 mb 0.00 in0.0 mm 0.00 in0.0 mm 0.00 in0.0 mm
02:55 PM 53.8°F12.1°C 48.4°F9.1°C 82% 1.6 mph SSW2.6 kmh SSW 6.7 mph10.8 kmh 29.38 in994.9 mb 0.00 in0.0 mm 0.00 in0.0 mm 0.00 in0.0 mm
03:00 PM 53.4°F11.9°C 48.1°F8.9°C 82% Calm Calm 6.7 mph10.8 kmh 29.39 in995.3 mb 0.02 in0.5 mm 0.02 in0.5 mm 0.02 in0.5 mm
03:05 PM 53.4°F11.9°C 48.4°F9.1°C 83% 3.4 mph S5.5 kmh S 4.3 mph6.9 kmh 29.39 in995.3 mb 0.02 in0.5 mm 0.00 in0.0 mm 0.02 in0.5 mm
03:10 PM 53.2°F11.8°C 48.2°F9.0°C 83% 2.5 mph S4.0 kmh S 4.3 mph6.9 kmh 29.39 in995.3 mb 0.02 in0.5 mm 0.00 in0.0 mm 0.02 in0.5 mm
03:15 PM 52.9°F11.6°C 47.9°F8.8°C 83% 2.0 mph S3.2 kmh S 3.6 mph5.8 kmh 29.39 in995.3 mb 0.02 in0.5 mm 0.00 in0.0 mm 0.02 in0.5 mm
03:20 PM 53.2°F11.8°C 48.2°F9.0°C 83% Calm Calm 3.1 mph5.0 kmh 29.39 in995.3 mb 0.02 in0.5 mm 0.00 in0.0 mm 0.02 in0.5 mm
03:25 PM 53.2°F11.8°C 48.2°F9.0°C 83% Calm Calm 2.5 mph4.0 kmh 29.39 in995.3 mb 0.02 in0.5 mm 0.00 in0.0 mm 0.02 in0.5 mm
03:30 PM 52.9°F11.6°C 47.9°F8.8°C 83% 1.8 mph S2.9 kmh S 4.0 mph6.4 kmh 29.39 in995.3 mb 0.02 in0.5 mm 0.00 in0.0 mm 0.02 in0.5 mm
03:35 PM 52.7°F11.5°C 47.7°F8.7°C 83% 2.5 mph SSW4.0 kmh SSW 5.1 mph8.2 kmh 29.39 in995.3 mb 0.02 in0.5 mm 0.00 in0.0 mm 0.02 in0.5 mm
03:40 PM 52.5°F11.4°C 47.8°F8.8°C 84% Calm Calm 5.8 mph9.3 kmh 29.40 in995.6 mb 0.02 in0.5 mm 0.00 in0.0 mm 0.02 in0.5 mm
03:45 PM 52.3°F11.3°C 47.6°F8.7°C 84% 0.7 mph SSW1.1 kmh SSW 5.8 mph9.3 kmh 29.40 in995.6 mb 0.02 in0.5 mm 0.00 in0.0 mm 0.02 in0.5 mm
03:50 PM 52.3°F11.3°C 47.6°F8.7°C 84% 0.9 mph S1.4 kmh S 2.5 mph4.0 kmh 29.40 in995.6 mb 0.02 in0.5 mm 0.00 in0.0 mm 0.02 in0.5 mm
03:55 PM 52.3°F11.3°C 47.9°F8.8°C 85% Calm Calm 2.7 mph4.3 kmh 29.40 in995.6 mb 0.02 in0.5 mm 0.00 in0.0 mm 0.02 in0.5 mm
04:00 PM 52.2°F11.2°C 47.8°F8.8°C 85% Calm Calm 2.7 mph4.3 kmh 29.41 in995.9 mb 0.00 in0.0 mm 0.00 in0.0 mm 0.02 in0.5 mm
04:05 PM 52.2°F11.2°C 47.8°F8.8°C 85% Calm Calm 1.6 mph2.6 kmh 29.40 in995.6 mb 0.00 in0.0 mm 0.00 in0.0 mm 0.02 in0.5 mm
04:10 PM 52.2°F11.2°C 48.1°F8.9°C 86% Calm Calm 2.5 mph4.0 kmh 29.40 in995.6 mb 0.00 in0.0 mm 0.00 in0.0 mm 0.02 in0.5 mm
04:15 PM 52.0°F11.1°C 47.9°F8.8°C 86% Calm Calm 2.5 mph4.0 kmh 29.41 in995.9 mb 0.00 in0.0 mm 0.00 in0.0 mm 0.02 in0.5 mm
04:20 PM 52.0°F11.1°C 47.9°F8.8°C 86% Calm Calm 1.3 mph2.1 kmh 29.40 in995.6 mb 0.00 in0.0 mm 0.00 in0.0 mm 0.02 in0.5 mm
04:25 PM 51.8°F11.0°C 47.7°F8.7°C 86% Calm Calm 1.3 mph2.1 kmh 29.40 in995.6 mb 0.00 in0.0 mm 0.00 in0.0 mm 0.02 in0.5 mm
04:30 PM 52.0°F11.1°C 47.9°F8.8°C 86% Calm Calm 1.3 mph2.1 kmh 29.40 in995.6 mb 0.00 in0.0 mm 0.00 in0.0 mm 0.02 in0.5 mm
04:35 PM 52.0°F11.1°C 48.2°F9.0°C 87% 1.3 mph SW2.1 kmh SW 1.3 mph2.1 kmh 29.40 in995.6 mb 0.00 in0.0 mm 0.00 in0.0 mm 0.02 in0.5 mm
04:40 PM 51.6°F10.9°C 47.8°F8.8°C 87% 0.9 mph SSW1.4 kmh SSW 1.3 mph2.1 kmh 29.40 in995.6 mb 0.00 in0.0 mm 0.00 in0.0 mm 0.02 in0.5 mm
04:45 PM 51.6°F10.9°C 47.8°F8.8°C 87% Calm Calm 1.3 mph2.1 kmh 29.40 in995.6 mb 0.00 in0.0 mm 0.00 in0.0 mm 0.02 in0.5 mm
04:50 PM 51.6°F10.9°C 47.8°F8.8°C 87% 3.1 mph SSW5.0 kmh SSW 3.1 mph5.0 kmh 29.40 in995.6 mb 0.00 in0.0 mm 0.00 in0.0 mm 0.02 in0.5 mm
04:55 PM 51.3°F10.7°C 47.5°F8.6°C 87% 1.1 mph SSW1.8 kmh SSW 3.1 mph5.0 kmh 29.40 in995.6 mb 0.00 in0.0 mm 0.00 in0.0 mm 0.02 in0.5 mm
05:00 PM 51.1°F10.6°C 47.3°F8.5°C 87% Calm Calm 3.1 mph5.0 kmh 29.41 in995.9 mb 0.00 in0.0 mm 0.00 in0.0 mm 0.02 in0.5 mm
05:05 PM 51.1°F10.6°C 47.3°F8.5°C 87% 1.8 mph SW2.9 kmh SW 2.5 mph4.0 kmh 29.41 in995.9 mb 0.00 in0.0 mm 0.00 in0.0 mm 0.02 in0.5 mm
05:10 PM 50.9°F10.5°C 47.4°F8.6°C 88% Calm Calm 2.2 mph3.5 kmh 29.41 in995.9 mb 0.00 in0.0 mm 0.00 in0.0 mm 0.02 in0.5 mm
05:15 PM 50.9°F10.5°C 47.4°F8.6°C 88% 3.4 mph ENE5.5 kmh ENE 3.4 mph5.5 kmh 29.42 in996.3 mb 0.00 in0.0 mm 0.00 in0.0 mm 0.02 in0.5 mm
05:20 PM 50.9°F10.5°C 47.4°F8.6°C 88% Calm Calm 4.3 mph6.9 kmh 29.42 in996.3 mb 0.00 in0.0 mm 0.00 in0.0 mm 0.02 in0.5 mm
05:25 PM 50.9°F10.5°C 47.4°F8.6°C 88% Calm Calm 4.3 mph6.9 kmh 29.43 in996.6 mb 0.00 in0.0 mm 0.00 in0.0 mm 0.02 in0.5 mm
05:30 PM 50.9°F10.5°C 47.4°F8.6°C 88% 3.4 mph ENE5.5 kmh ENE 5.1 mph8.2 kmh 29.43 in996.6 mb 0.00 in0.0 mm 0.00 in0.0 mm 0.02 in0.5 mm
05:35 PM 51.1°F10.6°C 47.6°F8.7°C 88% 2.7 mph N4.3 kmh N 5.1 mph8.2 kmh 29.43 in996.6 mb 0.00 in0.0 mm 0.00 in0.0 mm 0.02 in0.5 mm
05:40 PM 50.9°F10.5°C 47.4°F8.6°C 88% Calm Calm 5.1 mph8.2 kmh 29.44 in997.0 mb 0.00 in0.0 mm 0.00 in0.0 mm 0.02 in0.5 mm
05:45 PM 50.7°F10.4°C 47.2°F8.4°C 88% Calm Calm 4.5 mph7.2 kmh 29.44 in997.0 mb 0.00 in0.0 mm 0.00 in0.0 mm 0.02 in0.5 mm
05:50 PM 50.7°F10.4°C 47.2°F8.4°C 88% Calm Calm 3.1 mph5.0 kmh 29.44 in997.0 mb 0.00 in0.0 mm 0.00 in0.0 mm 0.02 in0.5 mm
05:55 PM 50.7°F10.4°C 47.2°F8.4°C 88% 2.0 mph E3.2 kmh E 2.2 mph3.5 kmh 29.44 in997.0 mb 0.00 in0.0 mm 0.00 in0.0 mm 0.02 in0.5 mm
06:00 PM 50.9°F10.5°C 47.4°F8.6°C 88% Calm Calm 2.0 mph3.2 kmh 29.44 in997.0 mb 0.00 in0.0 mm 0.00 in0.0 mm 0.02 in0.5 mm
06:05 PM 50.9°F10.5°C 47.4°F8.6°C 88% 2.5 mph NNE4.0 kmh NNE 7.4 mph11.9 kmh 29.45 in997.3 mb 0.00 in0.0 mm 0.00 in0.0 mm 0.02 in0.5 mm
06:10 PM 50.7°F10.4°C 47.2°F8.4°C 88% 6.3 mph NE10.1 kmh NE 7.4 mph11.9 kmh 29.45 in997.3 mb 0.00 in0.0 mm 0.00 in0.0 mm 0.02 in0.5 mm
06:15 PM 50.7°F10.4°C 47.2°F8.4°C 88% 2.0 mph NE3.2 kmh NE 6.3 mph10.1 kmh 29.45 in997.3 mb 0.00 in0.0 mm 0.00 in0.0 mm 0.02 in0.5 mm
06:20 PM 50.7°F10.4°C 47.2°F8.4°C 88% 1.8 mph NE2.9 kmh NE 6.3 mph10.1 kmh 29.45 in997.3 mb 0.00 in0.0 mm 0.00 in0.0 mm 0.02 in0.5 mm
06:25 PM 50.7°F10.4°C 47.2°F8.4°C 88% 2.5 mph NE4.0 kmh NE 9.2 mph14.8 kmh 29.45 in997.3 mb 0.00 in0.0 mm 0.00 in0.0 mm 0.02 in0.5 mm
06:30 PM 50.7°F10.4°C 47.2°F8.4°C 88% 2.2 mph ENE3.5 kmh ENE 9.2 mph14.8 kmh 29.45 in997.3 mb 0.00 in0.0 mm 0.00 in0.0 mm 0.02 in0.5 mm
06:35 PM 50.5°F10.3°C 47.0°F8.3°C 88% 2.5 mph E4.0 kmh E 5.1 mph8.2 kmh 29.45 in997.3 mb 0.00 in0.0 mm 0.00 in0.0 mm 0.02 in0.5 mm
06:40 PM 50.7°F10.4°C 47.2°F8.4°C 88% Calm Calm 5.1 mph8.2 kmh 29.45 in997.3 mb 0.00 in0.0 mm 0.00 in0.0 mm 0.02 in0.5 mm
06:45 PM 50.7°F10.4°C 47.2°F8.4°C 88% Calm Calm 2.7 mph4.3 kmh 29.46 in997.6 mb 0.00 in0.0 mm 0.00 in0.0 mm 0.02 in0.5 mm
06:50 PM 50.5°F10.3°C 47.0°F8.3°C 88% 1.6 mph E2.6 kmh E 6.3 mph10.1 kmh 29.46 in997.6 mb 0.00 in0.0 mm 0.00 in0.0 mm 0.02 in0.5 mm
06:55 PM 50.5°F10.3°C 47.0°F8.3°C 88% 3.1 mph NE5.0 kmh NE 6.3 mph10.1 kmh 29.46 in997.6 mb 0.00 in0.0 mm 0.00 in0.0 mm 0.02 in0.5 mm
07:00 PM 50.5°F10.3°C 47.0°F8.3°C 88% 2.0 mph NE3.2 kmh NE 6.3 mph10.1 kmh 29.46 in997.6 mb 0.00 in0.0 mm 0.00 in0.0 mm 0.02 in0.5 mm
07:05 PM 50.5°F10.3°C 47.0°F8.3°C 88% 0.7 mph NE1.1 kmh NE 5.6 mph9.0 kmh 29.46 in997.6 mb 0.00 in0.0 mm 0.00 in0.0 mm 0.02 in0.5 mm
07:10 PM 50.5°F10.3°C 47.0°F8.3°C 88% 2.5 mph NE4.0 kmh NE 5.6 mph9.0 kmh 29.46 in997.6 mb 0.00 in0.0 mm 0.00 in0.0 mm 0.02 in0.5 mm
07:15 PM 50.5°F10.3°C 47.0°F8.3°C 88% 1.3 mph ENE2.1 kmh ENE 3.6 mph5.8 kmh 29.46 in997.6 mb 0.00 in0.0 mm 0.00 in0.0 mm 0.02 in0.5 mm
07:20 PM 50.4°F10.2°C 46.9°F8.3°C 88% Calm Calm 3.1 mph5.0 kmh 29.46 in997.6 mb 0.00 in0.0 mm 0.00 in0.0 mm 0.02 in0.5 mm
07:25 PM 50.4°F10.2°C 46.9°F8.3°C 88% Calm Calm 3.1 mph5.0 kmh 29.46 in997.6 mb 0.00 in0.0 mm 0.00 in0.0 mm 0.02 in0.5 mm
07:30 PM 50.4°F10.2°C 46.9°F8.3°C 88% Calm Calm 3.1 mph5.0 kmh 29.46 in997.6 mb 0.00 in0.0 mm 0.00 in0.0 mm 0.02 in0.5 mm
07:35 PM 50.2°F10.1°C 46.7°F8.2°C 88% Calm Calm 2.2 mph3.5 kmh 29.46 in997.6 mb 0.00 in0.0 mm 0.00 in0.0 mm 0.02 in0.5 mm
07:40 PM 50.2°F10.1°C 46.7°F8.2°C 88% 2.5 mph SW4.0 kmh SW 2.9 mph4.7 kmh 29.46 in997.6 mb 0.00 in0.0 mm 0.00 in0.0 mm 0.02 in0.5 mm
07:45 PM 49.8°F9.9°C 46.3°F7.9°C 88% Calm Calm 3.8 mph6.1 kmh 29.46 in997.6 mb 0.00 in0.0 mm 0.00 in0.0 mm 0.02 in0.5 mm
07:50 PM 49.8°F9.9°C 46.6°F8.1°C 89% Calm Calm 3.8 mph6.1 kmh 29.46 in997.6 mb 0.00 in0.0 mm 0.00 in0.0 mm 0.02 in0.5 mm
07:55 PM 49.6°F9.8°C 46.5°F8.1°C 89% Calm Calm 2.9 mph4.7 kmh 29.46 in997.6 mb 0.00 in0.0 mm 0.00 in0.0 mm 0.02 in0.5 mm
08:00 PM 49.6°F9.8°C 46.5°F8.1°C 89% Calm Calm 2.9 mph4.7 kmh 29.46 in997.6 mb 0.00 in0.0 mm 0.00 in0.0 mm 0.02 in0.5 mm
08:05 PM 49.6°F9.8°C 46.5°F8.1°C 89% Calm Calm 5.1 mph8.2 kmh 29.46 in997.6 mb 0.00 in0.0 mm 0.00 in0.0 mm 0.02 in0.5 mm
08:10 PM 49.6°F9.8°C 46.5°F8.1°C 89% 1.8 mph NE2.9 kmh NE 5.1 mph8.2 kmh 29.46 in997.6 mb 0.00 in0.0 mm 0.00 in0.0 mm 0.02 in0.5 mm
08:15 PM 49.3°F9.6°C 46.1°F7.8°C 89% 1.3 mph NE2.1 kmh NE 4.9 mph7.9 kmh 29.46 in997.6 mb 0.00 in0.0 mm 0.00 in0.0 mm 0.02 in0.5 mm
08:20 PM 49.3°F9.6°C 46.1°F7.8°C 89% Calm Calm 2.5 mph4.0 kmh 29.46 in997.6 mb 0.00 in0.0 mm 0.00 in0.0 mm 0.02 in0.5 mm
08:25 PM 49.3°F9.6°C 46.1°F7.8°C 89% 1.3 mph SSW2.1 kmh SSW 2.5 mph4.0 kmh 29.46 in997.6 mb 0.00 in0.0 mm 0.00 in0.0 mm 0.02 in0.5 mm
08:30 PM 49.1°F9.5°C 46.0°F7.8°C 89% 1.6 mph SW2.6 kmh SW 2.0 mph3.2 kmh 29.46 in997.6 mb 0.00 in0.0 mm 0.00 in0.0 mm 0.02 in0.5 mm
08:35 PM 48.9°F9.4°C 45.8°F7.7°C 89% 1.3 mph SW2.1 kmh SW 3.8 mph6.1 kmh 29.47 in998.0 mb 0.00 in0.0 mm 0.00 in0.0 mm 0.02 in0.5 mm
08:40 PM 48.9°F9.4°C 46.1°F7.8°C 90% Calm Calm 3.8 mph6.1 kmh 29.47 in998.0 mb 0.00 in0.0 mm 0.00 in0.0 mm 0.02 in0.5 mm
08:45 PM 48.7°F9.3°C 46.0°F7.8°C 90% Calm Calm 2.7 mph4.3 kmh 29.47 in998.0 mb 0.00 in0.0 mm 0.00 in0.0 mm 0.02 in0.5 mm
08:50 PM 48.7°F9.3°C 45.7°F7.6°C 89% 3.6 mph SE5.8 kmh SE 4.3 mph6.9 kmh 29.47 in998.0 mb 0.00 in0.0 mm 0.00 in0.0 mm 0.02 in0.5 mm
08:55 PM 48.7°F9.3°C 45.7°F7.6°C 89% 3.6 mph S5.8 kmh S 4.3 mph6.9 kmh 29.47 in998.0 mb 0.00 in0.0 mm 0.00 in0.0 mm 0.02 in0.5 mm
09:00 PM 48.6°F9.2°C 45.5°F7.5°C 89% 4.9 mph ESE7.9 kmh ESE 7.2 mph11.6 kmh 29.47 in998.0 mb 0.00 in0.0 mm 0.00 in0.0 mm 0.02 in0.5 mm
09:05 PM 48.6°F9.2°C 45.5°F7.5°C 89% Calm Calm 7.2 mph11.6 kmh 29.47 in998.0 mb 0.00 in0.0 mm 0.00 in0.0 mm 0.02 in0.5 mm
09:10 PM 48.4°F9.1°C 45.3°F7.4°C 89% 0.9 mph N1.4 kmh N 4.0 mph6.4 kmh 29.47 in998.0 mb 0.00 in0.0 mm 0.00 in0.0 mm 0.02 in0.5 mm
09:15 PM 48.4°F9.1°C 45.3°F7.4°C 89% Calm Calm 2.2 mph3.5 kmh 29.47 in998.0 mb 0.00 in0.0 mm 0.00 in0.0 mm 0.02 in0.5 mm
09:20 PM 48.2°F9.0°C 45.2°F7.3°C 89% Calm Calm 2.5 mph4.0 kmh 29.47 in998.0 mb 0.00 in0.0 mm 0.00 in0.0 mm 0.02 in0.5 mm
09:25 PM 48.0°F8.9°C 45.0°F7.2°C 89% 1.3 mph SW2.1 kmh SW 2.5 mph4.0 kmh 29.47 in998.0 mb 0.00 in0.0 mm 0.00 in0.0 mm 0.02 in0.5 mm
09:30 PM 48.0°F8.9°C 45.3°F7.4°C 90% Calm Calm 6.9 mph11.1 kmh 29.48 in998.3 mb 0.00 in0.0 mm 0.00 in0.0 mm 0.02 in0.5 mm
09:35 PM 48.2°F9.0°C 45.5°F7.5°C 90% Calm Calm 6.9 mph11.1 kmh 29.48 in998.3 mb 0.00 in0.0 mm 0.00 in0.0 mm 0.02 in0.5 mm
09:40 PM 48.4°F9.1°C 45.7°F7.6°C 90% Calm Calm 3.1 mph5.0 kmh 29.47 in998.0 mb 0.00 in0.0 mm 0.00 in0.0 mm 0.02 in0.5 mm
09:45 PM 48.4°F9.1°C 45.7°F7.6°C 90% Calm Calm 3.1 mph5.0 kmh 29.48 in998.3 mb 0.00 in0.0 mm 0.00 in0.0 mm 0.02 in0.5 mm
09:50 PM 48.4°F9.1°C 45.7°F7.6°C 90% Calm Calm 2.5 mph4.0 kmh 29.48 in998.3 mb 0.00 in0.0 mm 0.00 in0.0 mm 0.02 in0.5 mm
09:55 PM 48.2°F9.0°C 45.5°F7.5°C 90% Calm Calm 1.6 mph2.6 kmh 29.48 in998.3 mb 0.00 in0.0 mm 0.00 in0.0 mm 0.02 in0.5 mm
10:00 PM 48.4°F9.1°C 45.7°F7.6°C 90% Calm Calm 3.6 mph5.8 kmh 29.48 in998.3 mb 0.00 in0.0 mm 0.00 in0.0 mm 0.02 in0.5 mm
10:05 PM 48.6°F9.2°C 45.8°F7.7°C 90% Calm Calm 3.6 mph5.8 kmh 29.48 in998.3 mb 0.00 in0.0 mm 0.00 in0.0 mm 0.02 in0.5 mm
10:10 PM 48.7°F9.3°C 46.0°F7.8°C 90% Calm Calm 3.6 mph5.8 kmh 29.48 in998.3 mb 0.00 in0.0 mm 0.00 in0.0 mm 0.02 in0.5 mm
10:15 PM 48.7°F9.3°C 46.0°F7.8°C 90% Calm Calm 4.3 mph6.9 kmh 29.48 in998.3 mb 0.00 in0.0 mm 0.00 in0.0 mm 0.02 in0.5 mm
10:20 PM 48.9°F9.4°C 46.1°F7.8°C 90% Calm Calm 7.4 mph11.9 kmh 29.48 in998.3 mb 0.00 in0.0 mm 0.00 in0.0 mm 0.02 in0.5 mm
10:25 PM 48.9°F9.4°C 46.1°F7.8°C 90% 3.8 mph SW6.1 kmh SW 7.4 mph11.9 kmh 29.48 in998.3 mb 0.00 in0.0 mm 0.00 in0.0 mm 0.02 in0.5 mm
10:30 PM 48.9°F9.4°C 46.1°F7.8°C 90% 2.0 mph S3.2 kmh S 7.2 mph11.6 kmh 29.48 in998.3 mb 0.00 in0.0 mm 0.00 in0.0 mm 0.02 in0.5 mm
10:35 PM 48.9°F9.4°C 46.1°F7.8°C 90% 4.5 mph S7.2 kmh S 7.2 mph11.6 kmh 29.48 in998.3 mb 0.00 in0.0 mm 0.00 in0.0 mm 0.02 in0.5 mm
10:40 PM 48.9°F9.4°C 46.1°F7.8°C 90% 1.6 mph E2.6 kmh E 5.1 mph8.2 kmh 29.48 in998.3 mb 0.00 in0.0 mm 0.00 in0.0 mm 0.02 in0.5 mm
10:45 PM 49.1°F9.5°C 46.3°F7.9°C 90% 5.6 mph E9.0 kmh E 11.9 mph19.2 kmh 29.48 in998.3 mb 0.00 in0.0 mm 0.00 in0.0 mm 0.02 in0.5 mm
10:50 PM 49.3°F9.6°C 46.1°F7.8°C 89% 5.6 mph E9.0 kmh E 11.9 mph19.2 kmh 29.49 in998.6 mb 0.00 in0.0 mm 0.00 in0.0 mm 0.02 in0.5 mm
10:55 PM 49.3°F9.6°C 46.1°F7.8°C 89% 3.8 mph ENE6.1 kmh ENE 11.9 mph19.2 kmh 29.49 in998.6 mb 0.00 in0.0 mm 0.00 in0.0 mm 0.02 in0.5 mm
11:00 PM 49.3°F9.6°C 46.1°F7.8°C 89% 2.5 mph ENE4.0 kmh ENE 11.6 mph18.7 kmh 29.48 in998.3 mb 0.00 in0.0 mm 0.00 in0.0 mm 0.02 in0.5 mm
11:05 PM 49.3°F9.6°C 46.1°F7.8°C 89% 5.8 mph ENE9.3 kmh ENE 7.8 mph12.6 kmh 29.49 in998.6 mb 0.00 in0.0 mm 0.00 in0.0 mm 0.02 in0.5 mm
11:10 PM 49.1°F9.5°C 46.0°F7.8°C 89% 3.8 mph E6.1 kmh E 7.8 mph12.6 kmh 29.48 in998.3 mb 0.00 in0.0 mm 0.00 in0.0 mm 0.02 in0.5 mm
11:15 PM 49.1°F9.5°C 46.0°F7.8°C 89% 2.5 mph E4.0 kmh E 9.8 mph15.8 kmh 29.48 in998.3 mb 0.00 in0.0 mm 0.00 in0.0 mm 0.02 in0.5 mm
11:20 PM 49.1°F9.5°C 46.0°F7.8°C 89% 3.4 mph E5.5 kmh E 9.8 mph15.8 kmh 29.48 in998.3 mb 0.00 in0.0 mm 0.00 in0.0 mm 0.02 in0.5 mm
11:25 PM 49.3°F9.6°C 46.1°F7.8°C 89% 1.1 mph E1.8 kmh E 6.3 mph10.1 kmh 29.48 in998.3 mb 0.00 in0.0 mm 0.00 in0.0 mm 0.02 in0.5 mm
11:30 PM 49.3°F9.6°C 46.1°F7.8°C 89% 2.2 mph E3.5 kmh E 6.3 mph10.1 kmh 29.49 in998.6 mb 0.00 in0.0 mm 0.00 in0.0 mm 0.02 in0.5 mm
11:35 PM 49.3°F9.6°C 46.1°F7.8°C 89% 3.6 mph SSE5.8 kmh SSE 4.7 mph7.6 kmh 29.48 in998.3 mb 0.00 in0.0 mm 0.00 in0.0 mm 0.02 in0.5 mm
11:40 PM 49.3°F9.6°C 46.1°F7.8°C 89% 3.6 mph S5.8 kmh S 6.0 mph9.7 kmh 29.48 in998.3 mb 0.00 in0.0 mm 0.00 in0.0 mm 0.02 in0.5 mm
11:45 PM 49.3°F9.6°C 46.1°F7.8°C 89% 1.6 mph S2.6 kmh S 6.0 mph9.7 kmh 29.48 in998.3 mb 0.00 in0.0 mm 0.00 in0.0 mm 0.02 in0.5 mm
11:50 PM 49.3°F9.6°C 46.1°F7.8°C 89% Calm Calm 4.7 mph7.6 kmh 29.48 in998.3 mb 0.00 in0.0 mm 0.00 in0.0 mm 0.02 in0.5 mm
11:55 PM 49.3°F9.6°C 46.1°F7.8°C 89% 2.0 mph SE3.2 kmh SE 6.5 mph10.5 kmh 29.48 in998.3 mb 0.00 in0.0 mm 0.00 in0.0 mm 0.02 in0.5 mm